Time;durP1;ratioP1;P1;durP2;ratioP2;P2;SDS_P1;SDS_P2;PMS_P1;PMS_P2;Temp;Humidity;BMP_temperature;BMP_pressure;BME280_temperature;BME280_humidity;BME280_pressure;Samples;Min_cycle;Max_cycle;Signal;HPM_P1;HPM_P2
2021/09/18 00:00:18;;;;;;;7.17;6.43;;;11.30;99.90;;;;;;5017331;28;20662;-59
2021/09/18 00:02:44;;;;;;;8.83;6.67;;;11.20;99.90;;;;;;5014581;28;20294;-60
2021/09/18 00:05:10;;;;;;;14.30;7.27;;;11.20;99.90;;;;;;5017903;28;20505;-58
2021/09/18 00:07:36;;;;;;;8.00;6.50;;;11.20;99.90;;;;;;5019763;28;20207;-58
2021/09/18 00:10:02;;;;;;;8.77;6.33;;;11.10;99.90;;;;;;5013959;28;20251;-58
2021/09/18 00:12:27;;;;;;;8.20;5.80;;;11.10;99.90;;;;;;5020770;28;20541;-57
2021/09/18 00:14:53;;;;;;;8.13;5.80;;;11.10;99.90;;;;;;5021312;28;20985;-58
2021/09/18 00:17:19;;;;;;;7.60;6.10;;;11.10;99.90;;;;;;5023050;28;20694;-59
2021/09/18 00:19:45;;;;;;;9.93;7.13;;;11.00;99.90;;;;;;5019504;28;20695;-58
2021/09/18 00:22:11;;;;;;;8.23;6.17;;;11.00;99.90;;;;;;5017289;28;20450;-58
2021/09/18 00:24:37;;;;;;;7.80;6.03;;;11.00;99.90;;;;;;5018643;28;20799;-57
2021/09/18 00:27:04;;;;;;;9.77;6.20;;;11.00;99.90;;;;;;5017820;28;20215;-58
2021/09/18 00:29:30;;;;;;;7.40;6.27;;;10.90;99.90;;;;;;5022375;28;20191;-58
2021/09/18 00:31:56;;;;;;;11.00;6.20;;;10.90;99.90;;;;;;5023496;28;20422;-58
2021/09/18 00:34:22;;;;;;;7.97;5.93;;;10.80;99.90;;;;;;5023909;28;20889;-58
2021/09/18 00:36:47;;;;;;;8.13;6.03;;;10.80;99.90;;;;;;5022182;28;20211;-59
2021/09/18 00:39:13;;;;;;;8.17;6.00;;;10.80;99.90;;;;;;5019782;28;20437;-57
2021/09/18 00:41:39;;;;;;;10.13;6.30;;;10.80;99.90;;;;;;5004009;28;20184;-59
2021/09/18 00:44:05;;;;;;;12.00;5.73;;;10.80;99.90;;;;;;5032073;28;20207;-57
2021/09/18 00:46:30;;;;;;;8.10;5.73;;;10.80;99.90;;;;;;5019282;28;20215;-57
2021/09/18 00:48:56;;;;;;;7.63;6.47;;;10.80;99.90;;;;;;5019554;28;20212;-58
2021/09/18 00:51:22;;;;;;;11.80;6.47;;;10.80;99.90;;;;;;5019438;28;20183;-57
2021/09/18 00:53:47;;;;;;;8.70;6.23;;;10.70;99.90;;;;;;5021835;28;20346;-58
2021/09/18 00:56:15;;;;;;;8.93;5.87;;;10.70;99.90;;;;;;5021478;28;20211;-57
2021/09/18 00:58:41;;;;;;;7.27;5.60;;;10.70;99.90;;;;;;5021149;28;20808;-58
2021/09/18 01:01:06;;;;;;;8.03;5.83;;;10.70;99.90;;;;;;5017292;28;20428;-59
2021/09/18 01:03:32;;;;;;;7.97;6.03;;;10.60;99.90;;;;;;5023463;28;20557;-59
2021/09/18 01:05:58;;;;;;;6.73;5.40;;;10.60;99.90;;;;;;5024805;28;20790;-57
2021/09/18 01:08:26;;;;;;;9.80;5.37;;;10.60;99.90;;;;;;5019222;28;20191;-59
2021/09/18 01:10:53;;;;;;;7.10;6.40;;;10.60;99.90;;;;;;5022143;28;20431;-58
2021/09/18 01:13:20;;;;;;;8.00;5.90;;;10.60;99.90;;;;;;5024237;28;20550;-60
2021/09/18 01:15:48;;;;;;;9.50;5.90;;;10.50;99.90;;;;;;5026036;28;20458;-59
2021/09/18 01:18:14;;;;;;;7.67;6.17;;;10.50;99.90;;;;;;5022881;28;20424;-59
2021/09/18 01:20:41;;;;;;;10.23;6.77;;;10.50;99.90;;;;;;5017774;28;20495;-59
2021/09/18 01:23:09;;;;;;;7.17;6.10;;;10.40;99.90;;;;;;5021802;28;20446;-60
2021/09/18 01:25:38;;;;;;;8.17;6.13;;;10.40;99.90;;;;;;5020622;28;20526;-59
2021/09/18 01:28:05;;;;;;;8.47;5.23;;;10.40;99.90;;;;;;5001678;28;20448;-59
2021/09/18 01:30:33;;;;;;;7.13;6.37;;;10.40;99.90;;;;;;5020351;28;20762;-57
2021/09/18 01:32:59;;;;;;;7.00;5.93;;;10.40;99.90;;;;;;5019391;28;20621;-58
2021/09/18 01:35:26;;;;;;;9.20;6.07;;;10.30;99.90;;;;;;5018705;28;20963;-57
2021/09/18 01:37:51;;;;;;;6.80;5.67;;;10.30;99.90;;;;;;5019228;28;20422;-59
2021/09/18 01:40:29;;;;;;;10.57;6.13;;;10.30;99.90;;;;;;5023164;28;20427;-57
2021/09/18 01:42:56;;;;;;;8.60;6.13;;;10.20;99.90;;;;;;5020651;28;20199;-58
2021/09/18 01:45:22;;;;;;;9.90;6.20;;;10.20;99.90;;;;;;5022991;28;20422;-58
2021/09/18 01:47:51;;;;;;;8.87;6.37;;;10.20;99.90;;;;;;5015060;28;20439;-58
2021/09/18 01:50:25;;;;;;;10.13;5.63;;;10.20;99.90;;;;;;5020727;28;20486;-59
2021/09/18 01:52:54;;;;;;;7.13;5.93;;;10.10;99.90;;;;;;5022049;28;20439;-58
2021/09/18 01:55:20;;;;;;;7.73;5.47;;;10.10;99.90;;;;;;5028409;28;20485;-57
2021/09/18 01:57:48;;;;;;;6.97;5.90;;;10.10;99.90;;;;;;5026781;28;20414;-58
2021/09/18 02:00:15;;;;;;;8.00;5.93;;;10.00;99.90;;;;;;5022436;28;20742;-58
2021/09/18 02:02:42;;;;;;;8.53;5.93;;;10.10;99.90;;;;;;5022876;28;20446;-59
2021/09/18 02:05:08;;;;;;;7.07;5.60;;;10.00;99.90;;;;;;5021624;28;20943;-58
2021/09/18 02:07:34;;;;;;;6.63;5.17;;;10.00;99.90;;;;;;5017674;28;20431;-58
2021/09/18 02:10:00;;;;;;;9.50;5.93;;;10.00;99.90;;;;;;5023294;28;20996;-58
2021/09/18 02:12:25;;;;;;;9.10;6.20;;;9.90;99.90;;;;;;5020979;28;20183;-58
2021/09/18 02:14:51;;;;;;;9.30;6.00;;;9.90;99.90;;;;;;5022491;28;20183;-58
2021/09/18 02:17:17;;;;;;;7.60;5.53;;;9.90;99.90;;;;;;5020564;28;20547;-58
2021/09/18 02:19:43;;;;;;;7.70;5.40;;;9.90;99.90;;;;;;5021900;28;20556;-57
2021/09/18 02:22:08;;;;;;;7.33;5.40;;;9.90;99.90;;;;;;5020827;28;20704;-56
2021/09/18 02:24:34;;;;;;;8.00;5.47;;;9.80;99.90;;;;;;5021875;28;20212;-59
2021/09/18 02:26:59;;;;;;;11.43;6.70;;;9.80;99.90;;;;;;5020268;28;20192;-58
2021/09/18 02:29:25;;;;;;;9.53;6.57;;;9.80;99.90;;;;;;5021175;28;20196;-58
2021/09/18 02:31:51;;;;;;;8.03;6.10;;;9.80;99.90;;;;;;5019055;28;20187;-57
2021/09/18 02:34:16;;;;;;;8.37;6.63;;;9.80;99.90;;;;;;5020960;28;20202;-61
2021/09/18 02:36:42;;;;;;;8.50;5.80;;;9.80;99.90;;;;;;5020428;28;20222;-58
2021/09/18 02:39:08;;;;;;;8.40;5.87;;;9.80;99.90;;;;;;5020266;28;20169;-60
2021/09/18 02:41:34;;;;;;;11.97;6.43;;;9.70;99.90;;;;;;5001442;28;20175;-57
2021/09/18 02:43:59;;;;;;;13.27;7.17;;;9.70;99.90;;;;;;5020623;28;20791;-58
2021/09/18 02:46:25;;;;;;;12.80;6.80;;;9.70;99.90;;;;;;5019507;28;20203;-59
2021/09/18 02:48:51;;;;;;;10.23;6.60;;;9.80;99.90;;;;;;5019029;28;20179;-58
2021/09/18 02:51:18;;;;;;;14.90;7.77;;;9.80;99.90;;;;;;5020135;28;20449;-57
2021/09/18 02:53:44;;;;;;;9.70;7.07;;;9.80;99.90;;;;;;5019351;28;20250;-58
2021/09/18 02:56:09;;;;;;;23.30;8.00;;;9.70;99.90;;;;;;5019785;28;20470;-60
2021/09/18 02:58:35;;;;;;;13.13;6.97;;;9.70;99.90;;;;;;5004197;28;20638;-57
2021/09/18 03:01:01;;;;;;;11.93;7.73;;;9.70;99.90;;;;;;5020535;28;20191;-57
2021/09/18 03:03:26;;;;;;;19.00;8.30;;;9.80;99.90;;;;;;5017043;28;20743;-57
2021/09/18 03:05:52;;;;;;;9.20;6.97;;;9.80;99.90;;;;;;5018901;28;20661;-58
2021/09/18 03:08:17;;;;;;;11.63;7.60;;;9.80;99.90;;;;;;5020092;28;20180;-56
2021/09/18 03:10:43;;;;;;;10.20;7.10;;;9.80;99.90;;;;;;5019609;28;20210;-57
2021/09/18 03:13:09;;;;;;;15.97;7.63;;;9.80;99.90;;;;;;5004144;28;20211;-58
2021/09/18 03:15:37;;;;;;;10.27;7.57;;;9.90;99.90;;;;;;5018623;28;20324;-58
2021/09/18 03:18:02;;;;;;;10.43;6.30;;;9.90;99.90;;;;;;5017473;28;20683;-59
2021/09/18 03:20:28;;;;;;;11.10;7.37;;;9.90;99.90;;;;;;5020596;28;20572;-57
2021/09/18 03:22:54;;;;;;;17.23;7.47;;;9.90;99.90;;;;;;5020126;28;20538;-58
2021/09/18 03:25:19;;;;;;;24.73;6.87;;;9.90;99.90;;;;;;5018872;28;20280;-59
2021/09/18 03:27:45;;;;;;;21.40;6.80;;;9.90;99.90;;;;;;5018694;28;20210;-59
2021/09/18 03:30:11;;;;;;;11.93;7.33;;;9.90;99.90;;;;;;5016665;28;20198;-58
2021/09/18 03:32:36;;;;;;;11.03;7.13;;;9.80;99.90;;;;;;5022417;28;20188;-58
2021/09/18 03:35:03;;;;;;;11.03;6.10;;;9.80;99.90;;;;;;5017850;28;20431;-59
2021/09/18 03:37:29;;;;;;;12.97;7.47;;;9.80;99.90;;;;;;5020478;28;20550;-57
2021/09/18 03:39:55;;;;;;;12.33;7.90;;;9.80;99.90;;;;;;5017959;28;20462;-59
2021/09/18 03:42:21;;;;;;;21.33;8.90;;;9.80;99.90;;;;;;5028429;23;20487;-58
2021/09/18 03:44:48;;;;;;;30.73;8.50;;;9.70;99.90;;;;;;5001966;28;20530;-58
2021/09/18 03:47:14;;;;;;;16.43;8.50;;;9.70;99.90;;;;;;5004624;28;20177;-58
2021/09/18 03:49:40;;;;;;;12.40;7.73;;;9.70;99.90;;;;;;5001337;28;20534;-58
2021/09/18 03:52:05;;;;;;;12.87;8.13;;;9.70;99.90;;;;;;4994331;28;20197;-59
2021/09/18 03:54:31;;;;;;;22.00;9.03;;;9.60;99.90;;;;;;4983654;28;20196;-58
2021/09/18 03:56:57;;;;;;;47.00;10.47;;;9.60;99.90;;;;;;4973379;28;20216;-58
2021/09/18 03:59:22;;;;;;;27.20;10.57;;;9.60;99.90;;;;;;4984929;28;20182;-57
2021/09/18 04:01:48;;;;;;;27.70;10.40;;;9.60;99.90;;;;;;4983713;28;20208;-59
2021/09/18 04:04:14;;;;;;;58.60;13.37;;;9.50;99.90;;;;;;4972529;28;20178;-59
2021/09/18 04:06:39;;;;;;;34.80;13.97;;;9.50;99.90;;;;;;4988121;28;20219;-58
2021/09/18 04:09:05;;;;;;;48.87;14.57;;;9.50;99.90;;;;;;4967039;28;20199;-58
2021/09/18 04:11:31;;;;;;;44.30;16.80;;;9.50;99.90;;;;;;4986315;28;20192;-58
2021/09/18 04:13:57;;;;;;;52.03;15.40;;;9.50;99.90;;;;;;4970736;28;20486;-60
2021/09/18 04:16:22;;;;;;;37.37;14.93;;;9.50;99.90;;;;;;4988955;28;20225;-59
2021/09/18 04:18:49;;;;;;;27.93;12.70;;;9.50;99.90;;;;;;4989553;28;20208;-59
2021/09/18 04:21:15;;;;;;;26.73;11.53;;;9.50;99.90;;;;;;4985139;28;20178;-59
2021/09/18 04:23:41;;;;;;;16.83;9.00;;;9.50;99.90;;;;;;4985517;28;20449;-59
2021/09/18 04:26:07;;;;;;;26.93;8.73;;;9.40;99.90;;;;;;4987287;28;20998;-58
2021/09/18 04:28:32;;;;;;;16.60;8.03;;;9.40;99.90;;;;;;4988054;28;21101;-60
2021/09/18 04:30:58;;;;;;;12.40;7.73;;;9.40;99.90;;;;;;4987702;28;20259;-58
2021/09/18 04:33:24;;;;;;;31.07;8.80;;;9.40;99.90;;;;;;4971241;28;20288;-59
2021/09/18 04:35:49;;;;;;;16.70;7.10;;;9.40;99.90;;;;;;4987334;28;20201;-58
2021/09/18 04:38:15;;;;;;;38.30;8.10;;;9.30;99.90;;;;;;4984374;28;20251;-59
2021/09/18 04:40:41;;;;;;;20.80;6.50;;;9.30;99.90;;;;;;4990200;28;20177;-57
2021/09/18 04:43:07;;;;;;;13.83;6.33;;;9.30;99.90;;;;;;4991328;28;20463;-59
2021/09/18 04:45:32;;;;;;;22.13;7.00;;;9.30;99.90;;;;;;4989794;28;20185;-57
2021/09/18 04:47:58;;;;;;;18.17;6.80;;;9.20;99.90;;;;;;4987488;28;20196;-58
2021/09/18 04:50:24;;;;;;;11.50;6.70;;;9.20;99.90;;;;;;4979761;28;20178;-59
2021/09/18 04:52:49;;;;;;;10.83;5.90;;;9.20;99.90;;;;;;4985423;28;20514;-59
2021/09/18 04:55:15;;;;;;;30.60;6.90;;;9.10;99.90;;;;;;4984202;28;20323;-58
2021/09/18 04:57:41;;;;;;;11.80;6.00;;;9.10;99.90;;;;;;4987404;28;20663;-60
2021/09/18 05:00:07;;;;;;;9.80;5.57;;;9.10;99.90;;;;;;4984811;28;20181;-60
2021/09/18 05:02:32;;;;;;;9.73;5.33;;;9.00;99.90;;;;;;4988546;28;20201;-59
2021/09/18 05:04:58;;;;;;;23.73;5.77;;;9.00;99.90;;;;;;4988542;28;20600;-58
2021/09/18 05:07:24;;;;;;;12.87;5.07;;;9.00;99.90;;;;;;4983360;28;20570;-59
2021/09/18 05:09:49;;;;;;;8.63;4.80;;;9.00;99.90;;;;;;4985989;28;20560;-60
2021/09/18 05:12:18;;;;;;;10.83;5.20;;;8.90;99.90;;;;;;4986364;28;20245;-59
2021/09/18 05:14:43;;;;;;;15.67;4.90;;;8.80;99.90;;;;;;4969435;28;20181;-60
2021/09/18 05:17:09;;;;;;;13.60;4.10;;;8.80;99.90;;;;;;4986712;28;21276;-57
2021/09/18 05:19:34;;;;;;;5.10;4.33;;;8.80;99.90;;;;;;4984690;28;20200;-57
2021/09/18 05:22:00;;;;;;;18.40;4.97;;;8.80;99.90;;;;;;4970446;28;20276;-59
2021/09/18 05:24:27;;;;;;;27.47;6.47;;;8.70;99.90;;;;;;4985992;28;20216;-57
2021/09/18 05:26:53;;;;;;;14.00;6.40;;;8.70;99.90;;;;;;4985960;28;20682;-62
2021/09/18 05:29:19;;;;;;;46.60;6.73;;;8.70;99.90;;;;;;4985418;28;20523;-58
2021/09/18 05:31:44;;;;;;;18.70;6.70;;;8.60;99.90;;;;;;4970103;28;20642;-59
2021/09/18 05:34:10;;;;;;;83.17;8.53;;;8.60;99.90;;;;;;4986440;28;20225;-58
2021/09/18 05:36:36;;;;;;;37.50;7.47;;;8.60;99.90;;;;;;4984732;28;20212;-58
2021/09/18 05:39:03;;;;;;;14.33;6.50;;;8.50;99.90;;;;;;4985914;28;20203;-59
2021/09/18 05:41:28;;;;;;;21.23;9.63;;;8.50;99.90;;;;;;4984973;28;20653;-60
2021/09/18 05:43:54;;;;;;;38.33;9.90;;;8.50;99.90;;;;;;4987145;28;20475;-60
2021/09/18 05:46:20;;;;;;;13.47;7.23;;;8.50;99.90;;;;;;4975325;28;20637;-61
2021/09/18 05:48:45;;;;;;;14.43;6.80;;;8.60;99.90;;;;;;4982276;28;20208;-60
2021/09/18 05:51:11;;;;;;;9.63;5.23;;;8.60;99.90;;;;;;4984656;28;20192;-61
2021/09/18 05:53:37;;;;;;;6.73;4.80;;;8.60;99.90;;;;;;4986843;28;20197;-59
2021/09/18 05:56:03;;;;;;;8.50;4.70;;;8.60;99.90;;;;;;4967165;28;20253;-59
2021/09/18 05:58:29;;;;;;;18.40;5.50;;;8.60;99.90;;;;;;4984117;28;20181;-58
2021/09/18 06:00:54;;;;;;;32.87;6.40;;;8.60;99.90;;;;;;4985228;28;20471;-60
2021/09/18 06:03:20;;;;;;;15.47;5.40;;;8.60;99.90;;;;;;4985036;28;20220;-59
2021/09/18 06:05:46;;;;;;;16.87;5.67;;;8.60;99.90;;;;;;4973022;28;21423;-60
2021/09/18 06:08:11;;;;;;;9.30;5.30;;;8.60;99.90;;;;;;4982241;28;20192;-58
2021/09/18 06:10:37;;;;;;;5.97;4.23;;;8.60;99.90;;;;;;4986146;28;20264;-60
2021/09/18 06:13:03;;;;;;;5.60;3.70;;;8.60;99.90;;;;;;4964422;28;20201;-59
2021/09/18 06:15:28;;;;;;;8.73;4.73;;;8.60;99.90;;;;;;4983801;28;20213;-59
2021/09/18 06:17:54;;;;;;;21.50;5.90;;;8.60;99.90;;;;;;4985328;28;20177;-59
2021/09/18 06:20:20;;;;;;;15.73;5.57;;;8.60;99.90;;;;;;4984637;28;20185;-59
2021/09/18 06:22:45;;;;;;;9.63;6.10;;;8.70;99.90;;;;;;4981235;28;20519;-60
2021/09/18 06:25:12;;;;;;;9.87;5.20;;;8.70;99.90;;;;;;4982488;28;20351;-60
2021/09/18 06:27:39;;;;;;;11.13;5.80;;;8.80;99.90;;;;;;4987626;28;20224;-59
2021/09/18 06:30:07;;;;;;;6.50;4.40;;;8.80;99.90;;;;;;4984522;28;20426;-60
2021/09/18 06:32:35;;;;;;;14.77;4.10;;;8.80;99.90;;;;;;4969855;28;20451;-60
2021/09/18 06:35:02;;;;;;;8.00;4.40;;;8.80;99.90;;;;;;4984389;28;20527;-57
2021/09/18 06:37:28;;;;;;;6.93;4.70;;;8.80;99.90;;;;;;4966416;28;20421;-59
2021/09/18 06:39:54;;;;;;;6.87;4.80;;;8.80;99.90;;;;;;4966512;28;20785;-60
2021/09/18 06:42:19;;;;;;;5.23;4.53;;;8.80;99.90;;;;;;4984851;28;20684;-59
2021/09/18 06:44:45;;;;;;;8.73;5.47;;;8.90;99.90;;;;;;4967973;28;20186;-59
2021/09/18 06:47:12;;;;;;;9.63;5.60;;;8.90;99.90;;;;;;4982875;28;20200;-60
2021/09/18 06:49:38;;;;;;;8.83;6.00;;;8.90;99.90;;;;;;4964085;28;20707;-56
2021/09/18 06:52:05;;;;;;;8.40;5.70;;;9.00;99.90;;;;;;4963724;28;20449;-59
2021/09/18 06:54:31;;;;;;;7.10;4.77;;;9.00;99.90;;;;;;4973696;28;20189;-59
2021/09/18 06:56:57;;;;;;;15.63;5.70;;;9.10;99.90;;;;;;4985259;28;20923;-59
2021/09/18 06:59:23;;;;;;;6.33;4.30;;;9.10;99.90;;;;;;4980410;28;20997;-58
2021/09/18 07:01:48;;;;;;;7.80;5.30;;;9.10;99.90;;;;;;4962778;28;20177;-59
2021/09/18 07:04:16;;;;;;;11.10;4.70;;;9.10;99.90;;;;;;4979073;28;20177;-60
2021/09/18 07:06:42;;;;;;;5.30;4.33;;;9.20;99.90;;;;;;4979778;28;20193;-59
2021/09/18 07:09:08;;;;;;;4.50;3.70;;;9.20;99.90;;;;;;4981769;28;20479;-60
2021/09/18 07:11:33;;;;;;;5.20;3.80;;;9.20;99.90;;;;;;4981304;28;20193;-59
2021/09/18 07:13:59;;;;;;;7.50;5.10;;;9.30;99.90;;;;;;4982476;28;20560;-59
2021/09/18 07:16:24;;;;;;;12.33;4.50;;;9.40;99.90;;;;;;4980575;28;20735;-59
2021/09/18 07:18:50;;;;;;;5.77;4.50;;;9.50;99.90;;;;;;4980444;28;20244;-59
2021/09/18 07:21:16;;;;;;;8.33;5.50;;;9.60;99.90;;;;;;4976834;28;20288;-58
2021/09/18 07:23:41;;;;;;;4.93;4.40;;;9.70;99.90;;;;;;4979213;28;20209;-58
2021/09/18 07:26:07;;;;;;;5.40;4.70;;;9.90;99.90;;;;;;4976097;28;20836;-59
2021/09/18 07:28:34;;;;;;;6.80;4.50;;;10.00;99.90;;;;;;4962589;28;20186;-58
2021/09/18 07:31:01;;;;;;;6.30;4.73;;;10.20;99.90;;;;;;4965265;28;20440;-60
2021/09/18 07:33:27;;;;;;;6.23;4.90;;;10.30;99.90;;;;;;4972907;28;20460;-60
2021/09/18 07:35:52;;;;;;;6.93;5.03;;;10.40;99.90;;;;;;4982348;28;20498;-58
2021/09/18 07:38:18;;;;;;;7.47;5.10;;;10.50;99.90;;;;;;4962816;28;20452;-58
2021/09/18 07:40:44;;;;;;;11.03;6.17;;;10.60;99.90;;;;;;4984550;28;20246;-58
2021/09/18 07:43:09;;;;;;;8.00;5.60;;;10.70;99.90;;;;;;4963832;28;20840;-56
2021/09/18 07:45:35;;;;;;;7.03;5.90;;;10.80;99.90;;;;;;4986577;28;20192;-56
2021/09/18 07:48:01;;;;;;;8.03;5.40;;;10.90;99.90;;;;;;4987245;28;20267;-57
2021/09/18 07:50:26;;;;;;;14.10;5.67;;;11.00;99.90;;;;;;4964932;28;20193;-57
2021/09/18 07:52:52;;;;;;;15.47;5.70;;;11.10;99.90;;;;;;4983538;28;20384;-57
2021/09/18 07:55:18;;;;;;;7.93;5.40;;;11.20;99.90;;;;;;4982892;28;20204;-56
2021/09/18 07:57:44;;;;;;;6.53;5.47;;;11.30;99.90;;;;;;4979291;28;20710;-56
2021/09/18 08:00:10;;;;;;;8.90;7.07;;;11.40;99.90;;;;;;4980498;28;20185;-56
2021/09/18 08:02:36;;;;;;;7.07;5.90;;;11.50;99.90;;;;;;4967582;28;20486;-57
2021/09/18 08:05:03;;;;;;;9.83;6.80;;;11.60;99.90;;;;;;4969488;28;20959;-57
2021/09/18 08:07:29;;;;;;;12.70;8.23;;;11.70;99.90;;;;;;4978574;28;20424;-57
2021/09/18 08:09:56;;;;;;;10.60;8.30;;;11.80;99.90;;;;;;4980983;28;20440;-57
2021/09/18 08:12:23;;;;;;;11.13;7.70;;;12.00;99.90;;;;;;4956609;28;20460;-56
2021/09/18 08:14:50;;;;;;;11.17;7.73;;;12.10;99.90;;;;;;4969616;28;20435;-54
2021/09/18 08:17:16;;;;;;;11.33;8.00;;;12.20;99.90;;;;;;4981537;28;20487;-57
2021/09/18 08:19:42;;;;;;;16.30;8.03;;;12.40;99.90;;;;;;4967043;28;20448;-55
2021/09/18 08:22:08;;;;;;;10.53;8.80;;;12.50;99.90;;;;;;4982198;28;20466;-56
2021/09/18 08:24:34;;;;;;;12.50;8.10;;;12.60;99.90;;;;;;4979593;28;20510;-55
2021/09/18 08:27:00;;;;;;;12.03;7.73;;;12.80;99.90;;;;;;4980920;28;20363;-55
2021/09/18 08:29:26;;;;;;;15.83;9.33;;;12.90;99.90;;;;;;4980103;28;20277;-56
2021/09/18 08:31:51;;;;;;;15.20;9.13;;;13.10;99.90;;;;;;4981170;28;20651;-57
2021/09/18 08:34:17;;;;;;;14.30;10.20;;;13.20;99.90;;;;;;4976313;28;20288;-56
2021/09/18 08:36:43;;;;;;;13.77;9.37;;;13.30;99.90;;;;;;4966401;28;20205;-57
2021/09/18 08:39:09;;;;;;;14.40;10.03;;;13.50;99.90;;;;;;4986227;28;20182;-58
2021/09/18 08:41:35;;;;;;;14.47;10.27;;;13.60;99.90;;;;;;4985524;28;20174;-58
2021/09/18 08:44:01;;;;;;;14.70;10.57;;;13.70;99.90;;;;;;4979333;28;20459;-59
2021/09/18 08:46:29;;;;;;;14.57;8.50;;;13.70;99.90;;;;;;4982150;28;20482;-57
2021/09/18 08:48:56;;;;;;;12.80;9.10;;;13.80;99.90;;;;;;4983846;28;20189;-60
2021/09/18 08:51:23;;;;;;;13.23;8.77;;;13.90;99.90;;;;;;4972974;28;20436;-60
2021/09/18 08:53:49;;;;;;;11.20;8.37;;;13.90;99.90;;;;;;4989332;28;20699;-60
2021/09/18 08:56:16;;;;;;;11.80;8.27;;;13.90;99.90;;;;;;4990506;28;20898;-60
2021/09/18 08:58:42;;;;;;;12.13;8.30;;;14.00;99.90;;;;;;4989489;28;20260;-59
2021/09/18 09:01:11;;;;;;;10.03;7.50;;;14.00;99.90;;;;;;4988679;28;20564;-64
2021/09/18 09:03:37;;;;;;;14.10;7.50;;;14.10;99.90;;;;;;4972151;28;20432;-60
2021/09/18 09:06:14;;;;;;;10.07;7.43;;;14.10;99.90;;;;;;4985903;28;20754;-59
2021/09/18 09:08:53;;;;;;;13.03;8.00;;;14.20;99.90;;;;;;4988860;28;20177;-59
2021/09/18 09:11:27;;;;;;;11.53;7.17;;;14.30;99.90;;;;;;4965934;28;20483;-59
2021/09/18 09:13:54;;;;;;;10.80;7.57;;;14.40;99.90;;;;;;4986687;28;20444;-59
2021/09/18 09:16:21;;;;;;;11.47;7.63;;;14.50;99.90;;;;;;4986786;28;20483;-60
2021/09/18 09:18:47;;;;;;;8.40;7.13;;;14.60;99.90;;;;;;4987646;28;20432;-61
2021/09/18 09:21:13;;;;;;;8.80;6.87;;;14.80;99.90;;;;;;4971725;28;20412;-59
2021/09/18 09:23:41;;;;;;;13.13;6.77;;;14.90;99.90;;;;;;4990143;28;20428;-58
2021/09/18 09:26:07;;;;;;;7.67;6.03;;;15.10;99.90;;;;;;4988818;28;20440;-60
2021/09/18 09:28:34;;;;;;;7.77;5.83;;;15.40;99.90;;;;;;4983869;28;20846;-61
2021/09/18 09:31:25;;;;;;;6.00;5.40;;;15.60;97.40;;;;;;4990132;28;20220;-58
2021/09/18 09:34:14;;;;;;;7.93;4.93;;;15.90;95.00;;;;;;4989920;28;20474;-60
2021/09/18 09:36:46;;;;;;;10.20;4.97;;;16.30;92.70;;;;;;4988018;28;20823;-60
2021/09/18 09:39:17;;;;;;;8.27;4.83;;;16.50;90.20;;;;;;4991755;28;20420;-60
2021/09/18 09:41:43;;;;;;;8.00;4.87;;;16.80;87.20;;;;;;4988739;28;20488;-61
2021/09/18 09:44:24;;;;;;;8.00;4.37;;;17.10;84.60;;;;;;5006168;22;20495;-60
2021/09/18 09:47:04;;;;;;;8.40;4.47;;;17.30;80.70;;;;;;4991697;28;20173;-62
2021/09/18 09:49:47;;;;;;;4.50;3.97;;;17.60;76.20;;;;;;4986833;28;20703;-61
2021/09/18 09:52:18;;;;;;;5.97;4.70;;;17.60;72.30;;;;;;4976735;28;20782;-61
2021/09/18 09:54:44;;;;;;;5.30;3.90;;;17.60;69.00;;;;;;4989662;28;22206;-61
2021/09/18 09:57:13;;;;;;;6.33;4.23;;;17.60;69.40;;;;;;4993525;28;20487;-61
2021/09/18 09:59:39;;;;;;;6.03;3.43;;;17.60;68.90;;;;;;4990688;28;20256;-61
2021/09/18 10:02:08;;;;;;;4.60;3.60;;;17.60;67.20;;;;;;4994606;28;20498;-61
2021/09/18 10:04:34;;;;;;;8.00;3.70;;;17.70;67.10;;;;;;4994815;28;20775;-61
2021/09/18 10:07:01;;;;;;;3.87;3.20;;;17.80;68.40;;;;;;4991424;28;20436;-61
2021/09/18 10:09:29;;;;;;;6.73;3.87;;;18.00;68.40;;;;;;4992684;28;20408;-61
2021/09/18 10:11:57;;;;;;;4.33;3.03;;;18.20;66.90;;;;;;4994073;28;20427;-60
2021/09/18 10:14:25;;;;;;;4.10;3.70;;;18.50;64.10;;;;;;4994335;28;20447;-61
2021/09/18 10:16:56;;;;;;;4.90;3.30;;;18.60;63.50;;;;;;5008584;28;20581;-61
2021/09/18 10:19:41;;;;;;;3.90;3.30;;;18.70;62.50;;;;;;5010112;28;20759;-61
2021/09/18 10:24:56;;;;;;;4.27;3.60;;;19.00;62.00;;;;;;4991129;28;20458;-61
2021/09/18 10:27:24;;;;;;;3.77;2.83;;;19.10;62.10;;;;;;4990448;28;20858;-60
2021/09/18 10:29:50;;;;;;;3.00;2.80;;;19.10;63.50;;;;;;4989336;28;20420;-61
2021/09/18 10:32:21;;;;;;;3.40;3.10;;;19.20;63.60;;;;;;4972867;28;20431;-60
2021/09/18 10:34:47;;;;;;;3.30;3.00;;;19.30;63.80;;;;;;4986677;28;20423;-61
2021/09/18 10:37:33;;;;;;;3.80;3.23;;;19.30;62.40;;;;;;5000876;28;20455;-61
2021/09/18 10:40:12;;;;;;;2.97;2.67;;;19.40;61.80;;;;;;4994500;28;20169;-61
2021/09/18 10:42:42;;;;;;;3.83;3.17;;;19.60;59.40;;;;;;4989173;28;20956;-61
2021/09/18 10:45:09;;;;;;;4.40;3.00;;;19.60;58.50;;;;;;4989802;28;20447;-61
2021/09/18 10:47:48;;;;;;;4.87;3.03;;;19.70;58.50;;;;;;4989666;28;20447;-60
2021/09/18 10:50:25;;;;;;;5.50;3.00;;;19.80;58.70;;;;;;4986626;28;20428;-61
2021/09/18 10:53:06;;;;;;;3.30;3.00;;;20.00;59.20;;;;;;4987550;28;20462;-60
2021/09/18 10:55:56;;;;;;;4.60;3.20;;;20.20;58.70;;;;;;4990115;28;20440;-60
2021/09/18 10:58:25;;;;;;;7.50;3.20;;;20.20;57.70;;;;;;4988716;28;20423;-61
2021/09/18 11:00:56;;;;;;;2.93;2.73;;;20.30;55.10;;;;;;4989388;28;20436;-60
2021/09/18 11:03:44;;;;;;;3.20;3.00;;;20.30;55.60;;;;;;4989732;28;20803;-61
2021/09/18 11:06:34;;;;;;;3.00;2.20;;;20.30;56.50;;;;;;4986620;28;20432;-61
2021/09/18 11:09:00;;;;;;;2.50;2.30;;;20.40;56.50;;;;;;4986182;28;20441;-60
2021/09/18 11:11:26;;;;;;;6.57;2.50;;;20.50;57.10;;;;;;4988419;28;20412;-61
2021/09/18 11:13:55;;;;;;;5.30;2.60;;;20.40;57.20;;;;;;4989488;28;20193;-61
2021/09/18 11:16:41;;;;;;;3.17;2.70;;;20.50;57.60;;;;;;4997133;28;20519;-61
2021/09/18 11:19:11;;;;;;;2.57;2.37;;;20.60;57.20;;;;;;4952023;28;20507;-61
2021/09/18 11:21:43;;;;;;;3.50;2.93;;;20.60;56.60;;;;;;4981444;28;20897;-61
2021/09/18 11:24:15;;;;;;;3.33;2.40;;;20.70;57.20;;;;;;4988724;28;20546;-61
2021/09/18 11:26:56;;;;;;;4.40;2.63;;;20.90;55.90;;;;;;4977237;28;20428;-60
2021/09/18 11:29:33;;;;;;;4.87;2.80;;;21.10;56.20;;;;;;4988581;28;20400;-62
2021/09/18 11:32:09;;;;;;;3.80;2.23;;;21.30;55.10;;;;;;4988976;28;20940;-62
2021/09/18 11:34:40;;;;;;;2.67;2.47;;;21.70;54.60;;;;;;4987707;28;20440;-61
2021/09/18 11:37:15;;;;;;;2.93;2.70;;;21.90;54.20;;;;;;4983067;28;20527;-61
2021/09/18 11:39:45;;;;;;;3.07;2.20;;;22.10;53.30;;;;;;4988703;28;20404;-61
2021/09/18 11:42:15;;;;;;;2.63;2.43;;;22.30;52.80;;;;;;4988341;28;20432;-61
2021/09/18 11:44:42;;;;;;;2.33;2.13;;;22.40;52.80;;;;;;4988990;28;20428;-60
2021/09/18 11:47:08;;;;;;;2.53;2.33;;;22.60;52.00;;;;;;4995591;28;20420;-61
2021/09/18 11:49:34;;;;;;;6.40;2.67;;;22.70;49.90;;;;;;4983423;28;20459;-60
2021/09/18 11:52:04;;;;;;;3.17;2.10;;;22.70;47.70;;;;;;4987427;28;20188;-61
2021/09/18 11:54:32;;;;;;;2.13;1.97;;;22.70;48.40;;;;;;4983349;28;20826;-60
2021/09/18 11:57:18;;;;;;;2.07;1.90;;;22.80;48.40;;;;;;4974423;28;20989;-61
2021/09/18 11:59:45;;;;;;;2.50;2.30;;;22.90;49.90;;;;;;4986742;28;20416;-60
2021/09/18 12:02:11;;;;;;;2.93;2.20;;;23.10;49.10;;;;;;4988549;28;20420;-60
2021/09/18 12:04:49;;;;;;;2.30;2.10;;;23.00;48.70;;;;;;4993907;28;20419;-60
2021/09/18 12:07:15;;;;;;;2.93;2.20;;;22.80;48.40;;;;;;4987308;28;20318;-60
2021/09/18 12:09:41;;;;;;;2.67;2.07;;;22.80;48.60;;;;;;4987343;28;20839;-61
2021/09/18 12:12:07;;;;;;;2.10;1.90;;;22.90;47.50;;;;;;4988771;28;20553;-61
2021/09/18 12:14:35;;;;;;;4.17;2.10;;;23.00;46.90;;;;;;4988599;28;20204;-61
2021/09/18 12:17:22;;;;;;;2.60;2.40;;;23.00;47.20;;;;;;4988566;28;20471;-61
2021/09/18 12:19:48;;;;;;;3.00;2.37;;;23.10;47.30;;;;;;4987542;28;20424;-61
2021/09/18 12:22:15;;;;;;;2.30;1.90;;;23.40;47.30;;;;;;4988305;28;20494;-60
2021/09/18 12:24:46;;;;;;;2.27;1.83;;;23.60;48.20;;;;;;4988500;28;20436;-61
2021/09/18 12:27:31;;;;;;;3.67;2.10;;;23.80;48.20;;;;;;4984061;28;20515;-61
2021/09/18 12:29:59;;;;;;;2.20;2.00;;;24.10;47.40;;;;;;4990910;28;20439;-61
2021/09/18 12:32:26;;;;;;;4.67;1.93;;;24.30;46.60;;;;;;4991422;28;20419;-61
2021/09/18 12:34:56;;;;;;;3.33;2.37;;;24.40;46.80;;;;;;4991281;28;20920;-61
2021/09/18 12:37:34;;;;;;;2.67;2.40;;;24.50;46.70;;;;;;5002635;28;20509;-61
2021/09/18 12:40:21;;;;;;;1.83;1.73;;;24.60;46.80;;;;;;4990791;28;21031;-61
2021/09/18 12:43:09;;;;;;;2.07;1.87;;;24.70;46.20;;;;;;4991168;28;20468;-60
2021/09/18 12:45:36;;;;;;;2.33;2.13;;;24.70;46.20;;;;;;4991403;28;20737;-61
2021/09/18 12:48:23;;;;;;;2.47;1.80;;;24.50;45.70;;;;;;4991620;28;20420;-60
2021/09/18 12:51:01;;;;;;;2.93;2.07;;;24.20;44.70;;;;;;4970080;28;20439;-60